Time;durP1;ratioP1;P1;durP2;ratioP2;P2;SDS_P1;SDS_P2;PMS_P1;PMS_P2;Temp;Humidity;BMP_temperature;BMP_pressure;BME280_temperature;BME280_humidity;BME280_pressure;Samples;Min_cycle;Max_cycle;Signal;HPM_P1;HPM_P2
2021/11/08 00:01:39;;;;;;;13.40;5.57;;;10.50;99.90;;;;;;5015692;28;20881;-72
2021/11/08 00:04:05;;;;;;;6.60;4.97;;;10.50;99.90;;;;;;5015213;28;20550;-72
2021/11/08 00:06:32;;;;;;;11.07;5.97;;;10.50;99.90;;;;;;5015451;28;20561;-72
2021/11/08 00:08:57;;;;;;;10.20;6.40;;;10.50;99.90;;;;;;5015167;28;20413;-72
2021/11/08 00:11:25;;;;;;;11.40;6.57;;;10.40;99.90;;;;;;5015889;28;20445;-72
2021/11/08 00:13:51;;;;;;;10.60;6.47;;;10.40;99.90;;;;;;4997936;28;20667;-72
2021/11/08 00:16:30;;;;;;;11.30;6.07;;;10.40;99.90;;;;;;5014972;28;20450;-72
2021/11/08 00:21:31;;;;;;;12.00;6.20;;;10.40;99.90;;;;;;5015647;28;20405;-72
2021/11/08 00:23:58;;;;;;;13.53;6.60;;;10.50;99.90;;;;;;5015233;28;20777;-72
2021/11/08 00:26:23;;;;;;;12.70;7.20;;;10.50;99.90;;;;;;5015341;28;20875;-72
2021/11/08 00:28:50;;;;;;;10.80;6.87;;;10.50;99.90;;;;;;5015397;28;20447;-72
2021/11/08 00:31:16;;;;;;;10.63;6.67;;;10.60;99.90;;;;;;5014726;28;20185;-72
2021/11/08 00:33:41;;;;;;;12.47;6.83;;;10.50;99.90;;;;;;5015267;28;20440;-72
2021/11/08 00:36:08;;;;;;;13.67;6.87;;;10.60;99.90;;;;;;5014627;28;20906;-72
2021/11/08 00:38:35;;;;;;;11.20;7.43;;;10.60;99.90;;;;;;5015188;28;20189;-72
2021/11/08 00:41:01;;;;;;;18.67;7.03;;;10.60;99.90;;;;;;5014460;28;20464;-72
2021/11/08 00:43:28;;;;;;;12.30;7.07;;;10.60;99.90;;;;;;5015367;28;20455;-72
2021/11/08 00:45:54;;;;;;;13.63;7.27;;;10.60;99.90;;;;;;5015018;28;20564;-72
2021/11/08 00:48:23;;;;;;;15.40;8.60;;;10.60;99.90;;;;;;4996846;28;20419;-72
2021/11/08 00:50:52;;;;;;;12.00;7.00;;;10.70;99.90;;;;;;5014947;28;20428;-72
2021/11/08 00:53:19;;;;;;;10.43;7.13;;;10.70;99.90;;;;;;5014605;28;20425;-72
2021/11/08 00:55:47;;;;;;;9.90;7.23;;;10.80;99.90;;;;;;5015005;28;20416;-72
2021/11/08 01:01:11;;;;;;;12.70;8.37;;;10.80;99.90;;;;;;5000594;28;20556;-72
2021/11/08 01:03:41;;;;;;;9.93;7.23;;;10.70;99.90;;;;;;5014383;28;20424;-72
2021/11/08 01:06:08;;;;;;;9.67;7.13;;;10.80;99.90;;;;;;5014102;28;20458;-72
2021/11/08 01:08:35;;;;;;;10.10;7.00;;;10.80;99.90;;;;;;5014621;28;20414;-72
2021/11/08 01:11:01;;;;;;;13.93;6.87;;;10.70;99.90;;;;;;5014010;28;20410;-72
2021/11/08 01:13:27;;;;;;;11.60;7.40;;;10.90;99.90;;;;;;5014534;28;20519;-72
2021/11/08 01:15:57;;;;;;;17.10;7.77;;;10.80;99.90;;;;;;5014486;28;20892;-72
2021/11/08 01:18:24;;;;;;;8.53;7.30;;;10.80;99.90;;;;;;5014390;28;20417;-72
2021/11/08 01:20:50;;;;;;;16.23;7.60;;;10.80;99.90;;;;;;5014374;28;20426;-72
2021/11/08 01:23:19;;;;;;;9.23;6.77;;;10.90;99.90;;;;;;5013765;28;20812;-72
2021/11/08 01:25:52;;;;;;;14.77;8.47;;;10.90;99.90;;;;;;5014502;28;20469;-72
2021/11/08 01:28:17;;;;;;;14.03;7.37;;;10.90;99.90;;;;;;5013738;28;20432;-72
2021/11/08 01:30:43;;;;;;;11.03;7.70;;;10.90;99.90;;;;;;5014225;28;20505;-72
2021/11/08 01:33:14;;;;;;;11.57;8.30;;;10.90;99.90;;;;;;5013613;28;20182;-72
2021/11/08 01:35:43;;;;;;;14.27;7.77;;;10.90;99.90;;;;;;4996799;28;20178;-72
2021/11/08 01:38:12;;;;;;;16.40;8.23;;;11.00;99.90;;;;;;4996062;28;20782;-72
2021/11/08 01:40:40;;;;;;;8.73;7.70;;;10.90;99.90;;;;;;5013726;28;20468;-72
2021/11/08 01:43:07;;;;;;;13.67;8.10;;;11.00;99.90;;;;;;5013456;28;20466;-72
2021/11/08 01:45:33;;;;;;;14.10;8.40;;;11.00;99.90;;;;;;5013882;28;20469;-72
2021/11/08 01:47:59;;;;;;;16.37;8.17;;;11.00;99.90;;;;;;5014233;28;20808;-72
2021/11/08 01:50:26;;;;;;;16.43;7.70;;;11.00;99.90;;;;;;5014117;28;20414;-72
2021/11/08 01:52:52;;;;;;;13.43;8.97;;;10.90;99.90;;;;;;5013868;28;20878;-72
2021/11/08 01:55:20;;;;;;;13.70;8.47;;;11.00;99.90;;;;;;5013176;28;20428;-72
2021/11/08 01:57:45;;;;;;;10.83;8.40;;;11.00;99.90;;;;;;5013518;28;20840;-72
2021/11/08 02:00:14;;;;;;;20.60;9.10;;;11.00;99.90;;;;;;5013097;28;20472;-72
2021/11/08 02:02:39;;;;;;;12.67;8.60;;;10.90;99.90;;;;;;5013659;28;20179;-72
2021/11/08 02:05:05;;;;;;;16.40;9.37;;;11.00;99.90;;;;;;5012963;28;20870;-73
2021/11/08 02:07:31;;;;;;;17.43;9.37;;;11.00;99.90;;;;;;5013306;28;20281;-72
2021/11/08 02:09:57;;;;;;;14.87;9.50;;;11.00;99.90;;;;;;5013536;28;20929;-72
2021/11/08 02:12:23;;;;;;;17.93;9.83;;;11.00;99.90;;;;;;5011704;28;20175;-72
2021/11/08 02:14:49;;;;;;;18.67;9.67;;;11.00;99.90;;;;;;5013485;28;20406;-72
2021/11/08 02:17:15;;;;;;;13.83;8.43;;;10.90;99.90;;;;;;5013100;28;20188;-72
2021/11/08 02:19:41;;;;;;;15.30;9.57;;;11.00;99.90;;;;;;5013056;28;20413;-72
2021/11/08 02:22:07;;;;;;;17.03;11.10;;;10.90;99.90;;;;;;5012710;28;20612;-72
2021/11/08 02:24:34;;;;;;;16.23;10.63;;;11.00;99.90;;;;;;5013287;28;20424;-72
2021/11/08 02:27:01;;;;;;;15.03;9.77;;;11.00;99.90;;;;;;5013179;28;20280;-72
2021/11/08 02:29:27;;;;;;;17.83;11.40;;;11.00;99.90;;;;;;5012981;28;20409;-72
2021/11/08 02:31:55;;;;;;;19.20;11.50;;;11.00;99.90;;;;;;5013222;28;20917;-72
2021/11/08 02:34:22;;;;;;;16.63;10.53;;;11.00;99.90;;;;;;4994966;28;20413;-72
2021/11/08 02:36:48;;;;;;;17.93;11.40;;;11.00;99.90;;;;;;5012890;28;20896;-72
2021/11/08 02:39:38;;;;;;;13.60;10.57;;;11.00;99.90;;;;;;5012490;28;20406;-72
2021/11/08 02:42:01;;;;;;;17.10;11.53;;;11.00;99.90;;;;;;5012775;28;20461;-72
2021/11/08 02:44:27;;;;;;;19.87;12.53;;;11.00;99.90;;;;;;5012478;28;20449;-73
2021/11/08 02:46:54;;;;;;;17.67;11.73;;;11.00;99.90;;;;;;5012988;28;20463;-72
2021/11/08 02:49:29;;;;;;;16.83;11.40;;;11.00;99.90;;;;;;5012336;28;20519;-72
2021/11/08 02:52:01;;;;;;;20.00;11.37;;;11.00;99.90;;;;;;5012681;28;20818;-72
2021/11/08 02:54:32;;;;;;;16.17;10.90;;;11.10;99.90;;;;;;5012333;28;20512;-72
2021/11/08 02:56:58;;;;;;;16.77;12.20;;;11.10;99.90;;;;;;5012968;28;20448;-72
2021/11/08 02:59:27;;;;;;;18.07;12.03;;;11.00;99.90;;;;;;5012239;28;20782;-72
2021/11/08 03:01:54;;;;;;;15.53;11.90;;;11.10;99.90;;;;;;5012914;28;20456;-72
2021/11/08 03:04:25;;;;;;;20.97;13.33;;;11.00;99.90;;;;;;4994385;28;20431;-73
2021/11/08 03:06:51;;;;;;;16.00;12.67;;;11.00;99.90;;;;;;5013061;28;20476;-72
2021/11/08 03:09:30;;;;;;;16.93;12.53;;;11.00;99.90;;;;;;5012115;28;20409;-72
2021/11/08 03:11:59;;;;;;;21.10;13.00;;;11.00;99.90;;;;;;5012506;28;20182;-72
2021/11/08 03:14:27;;;;;;;19.80;12.53;;;11.10;99.90;;;;;;5012114;28;20483;-72
2021/11/08 03:19:24;;;;;;;22.27;12.90;;;11.00;99.90;;;;;;5012116;28;20416;-72
2021/11/08 03:21:57;;;;;;;22.67;13.30;;;11.00;99.90;;;;;;5012676;28;20441;-72
2021/11/08 03:24:38;;;;;;;24.77;13.90;;;11.00;99.90;;;;;;5015276;28;20397;-74
2021/11/08 03:27:23;;;;;;;23.50;13.90;;;11.00;99.90;;;;;;5016483;28;20448;-72
2021/11/08 03:29:50;;;;;;;23.57;13.07;;;11.00;99.90;;;;;;5016593;28;20405;-72
2021/11/08 03:32:17;;;;;;;20.20;14.50;;;11.00;99.90;;;;;;5015856;28;20453;-72
2021/11/08 03:34:53;;;;;;;21.37;14.80;;;11.00;99.90;;;;;;5016400;28;20500;-72
2021/11/08 03:37:19;;;;;;;27.70;14.83;;;11.00;99.90;;;;;;5015802;28;20413;-72
2021/11/08 03:39:45;;;;;;;22.60;14.20;;;11.00;99.90;;;;;;5016295;28;20551;-72
2021/11/08 03:42:11;;;;;;;24.27;14.80;;;11.00;99.90;;;;;;5015700;28;20272;-72
2021/11/08 03:44:36;;;;;;;25.00;15.00;;;10.90;99.90;;;;;;5016228;28;20442;-72
2021/11/08 03:47:03;;;;;;;21.00;13.00;;;10.90;99.90;;;;;;5016146;28;20464;-72
2021/11/08 03:49:29;;;;;;;23.53;14.20;;;10.90;99.90;;;;;;5015574;28;20180;-72
2021/11/08 03:51:54;;;;;;;26.90;15.50;;;10.90;99.90;;;;;;5016045;28;20414;-72
2021/11/08 03:54:20;;;;;;;21.50;15.20;;;10.90;99.90;;;;;;5015367;28;20461;-72
2021/11/08 03:56:46;;;;;;;26.03;13.73;;;10.90;99.90;;;;;;5016030;28;20623;-72
2021/11/08 03:59:11;;;;;;;24.87;14.73;;;10.90;99.90;;;;;;5015426;28;20186;-72
2021/11/08 04:01:37;;;;;;;22.57;15.13;;;11.00;99.90;;;;;;5015936;28;20176;-72
2021/11/08 04:04:05;;;;;;;19.80;14.23;;;10.90;99.90;;;;;;5015945;28;20201;-72
2021/11/08 04:06:35;;;;;;;22.73;15.30;;;10.90;99.90;;;;;;5015143;28;20207;-72
2021/11/08 04:09:01;;;;;;;20.97;15.03;;;10.90;99.90;;;;;;5015771;28;20452;-72
2021/11/08 04:11:28;;;;;;;24.40;14.93;;;10.90;99.90;;;;;;5015183;28;20436;-72
2021/11/08 04:13:57;;;;;;;22.47;15.27;;;10.90;99.90;;;;;;5016039;28;20461;-72
2021/11/08 04:16:24;;;;;;;20.73;14.80;;;10.90;99.90;;;;;;5014987;28;20874;-72
2021/11/08 04:18:52;;;;;;;22.77;14.47;;;10.90;99.90;;;;;;5015610;28;20458;-72
2021/11/08 04:21:20;;;;;;;20.33;13.63;;;10.80;99.90;;;;;;5014945;28;20508;-72
2021/11/08 04:23:46;;;;;;;22.37;13.93;;;10.80;99.90;;;;;;5015356;28;20426;-72
2021/11/08 04:26:17;;;;;;;21.40;14.70;;;10.70;99.90;;;;;;5014802;28;20461;-73
2021/11/08 04:28:51;;;;;;;23.73;13.80;;;10.70;99.90;;;;;;5015305;28;20401;-72
2021/11/08 04:31:17;;;;;;;21.60;14.27;;;10.70;99.90;;;;;;5014862;28;20393;-72
2021/11/08 04:33:49;;;;;;;30.40;14.20;;;10.70;99.90;;;;;;5015067;28;20426;-72
2021/11/08 04:41:38;;;;;;;25.30;16.10;;;10.70;99.90;;;;;;5014225;28;20427;-72
2021/11/08 04:44:39;;;;;;;23.83;14.80;;;10.70;99.90;;;;;;5015163;28;20448;-72
2021/11/08 04:49:38;;;;;;;25.70;13.70;;;10.70;99.90;;;;;;5014458;28;20411;-72
2021/11/08 05:30:08;;;;;;;29.03;15.90;;;10.30;99.90;;;;;;5014297;28;20496;-72
2021/11/08 05:32:40;;;;;;;20.43;14.93;;;10.30;99.90;;;;;;5013621;28;20758;-72
2021/11/08 05:35:11;;;;;;;22.93;14.77;;;10.40;99.90;;;;;;5014509;28;20406;-72
2021/11/08 05:37:41;;;;;;;25.20;17.03;;;10.40;99.90;;;;;;5013607;28;20484;-72
2021/11/08 05:40:15;;;;;;;20.87;15.13;;;10.40;99.90;;;;;;5014101;28;20773;-72
2021/11/08 05:42:41;;;;;;;17.70;12.33;;;10.50;99.90;;;;;;5014093;28;20954;-72
2021/11/08 05:45:11;;;;;;;22.13;13.10;;;10.60;99.90;;;;;;5013925;28;20453;-72
2021/11/08 05:47:37;;;;;;;19.67;13.77;;;10.50;99.90;;;;;;5013319;28;20419;-72
2021/11/08 05:50:05;;;;;;;28.97;12.33;;;10.50;99.90;;;;;;5013840;28;20426;-72
2021/11/08 05:52:31;;;;;;;23.93;15.10;;;10.50;99.90;;;;;;5013129;28;20467;-72
2021/11/08 05:54:57;;;;;;;17.43;11.80;;;10.50;99.90;;;;;;5013676;28;20415;-72
2021/11/08 06:49:23;;;;;;;19.50;13.20;;;10.60;99.90;;;;;;5012685;28;20393;-74
2021/11/08 06:51:51;;;;;;;19.60;10.80;;;10.60;99.90;;;;;;5012618;28;20548;-72
2021/11/08 06:54:18;;;;;;;19.23;12.03;;;10.50;99.90;;;;;;5012505;28;20442;-72
2021/11/08 06:56:58;;;;;;;15.83;12.77;;;10.50;99.90;;;;;;5012053;28;20434;-72
2021/11/08 06:59:25;;;;;;;20.70;10.80;;;10.60;99.90;;;;;;5011809;28;20487;-73
2021/11/08 07:01:52;;;;;;;17.73;11.70;;;10.60;99.90;;;;;;5012789;28;20410;-72
2021/11/08 07:04:19;;;;;;;16.07;11.33;;;10.60;99.90;;;;;;5012407;28;20489;-73
2021/11/08 07:06:45;;;;;;;18.73;12.10;;;10.60;99.90;;;;;;5012126;28;20545;-72
2021/11/08 07:09:12;;;;;;;18.37;10.63;;;10.70;99.90;;;;;;4994618;28;20417;-72
2021/11/08 07:11:38;;;;;;;15.53;13.17;;;10.70;99.90;;;;;;5011944;28;20429;-72
2021/11/08 07:14:09;;;;;;;18.53;10.57;;;10.70;99.90;;;;;;5012839;28;20446;-72
2021/11/08 07:16:38;;;;;;;15.00;10.33;;;10.70;99.90;;;;;;5012208;28;20408;-72
2021/11/08 07:19:04;;;;;;;18.57;11.83;;;10.70;99.90;;;;;;5012700;28;20418;-72
2021/11/08 07:21:30;;;;;;;17.37;12.27;;;10.70;99.90;;;;;;5012324;28;20515;-72
2021/11/08 07:23:56;;;;;;;19.30;12.23;;;10.70;99.90;;;;;;5012616;28;20408;-72
2021/11/08 07:26:22;;;;;;;21.90;12.10;;;10.80;99.90;;;;;;5011976;28;20463;-72
2021/11/08 07:28:48;;;;;;;28.77;12.50;;;10.70;99.90;;;;;;5012644;28;20428;-72
2021/11/08 07:31:14;;;;;;;21.03;14.13;;;10.70;99.90;;;;;;5012601;28;20416;-72
2021/11/08 07:33:40;;;;;;;26.40;12.77;;;10.70;99.90;;;;;;4994452;28;20411;-72
2021/11/08 07:36:06;;;;;;;22.00;12.40;;;10.70;99.90;;;;;;5012567;28;20179;-72
2021/11/08 07:38:33;;;;;;;18.10;11.50;;;10.70;99.90;;;;;;5011856;28;20209;-72
2021/11/08 07:41:00;;;;;;;19.30;12.90;;;10.70;99.90;;;;;;5012307;28;20423;-72
2021/11/08 07:43:26;;;;;;;22.27;12.73;;;10.70;99.90;;;;;;5012168;28;20458;-72
2021/11/08 07:45:52;;;;;;;18.73;13.07;;;10.70;99.90;;;;;;5012285;28;20859;-72
2021/11/08 07:48:20;;;;;;;19.20;12.33;;;10.70;99.90;;;;;;5012134;28;20550;-72
2021/11/08 07:50:47;;;;;;;23.83;14.00;;;10.70;99.90;;;;;;5012346;28;20863;-72
2021/11/08 07:53:13;;;;;;;22.70;13.60;;;10.70;99.90;;;;;;5012352;28;20407;-72
2021/11/08 07:55:39;;;;;;;24.37;11.87;;;10.80;99.90;;;;;;5011695;28;20416;-72
2021/11/08 07:58:05;;;;;;;17.17;11.80;;;10.80;99.90;;;;;;5012738;28;20438;-72
2021/11/08 08:00:36;;;;;;;21.83;12.10;;;10.80;99.90;;;;;;5011817;28;20559;-72
2021/11/08 08:03:03;;;;;;;17.07;12.57;;;10.80;99.90;;;;;;4994893;28;20439;-72
2021/11/08 08:05:30;;;;;;;23.33;13.20;;;10.90;99.90;;;;;;5011419;28;20562;-72
2021/11/08 08:07:56;;;;;;;19.77;12.60;;;11.00;99.90;;;;;;5012274;28;20468;-72
2021/11/08 08:10:22;;;;;;;18.27;14.00;;;11.00;99.90;;;;;;5013821;28;20918;-72
2021/11/08 08:12:48;;;;;;;18.57;11.30;;;11.00;99.90;;;;;;5016064;28;20517;-72
2021/11/08 08:15:15;;;;;;;17.30;12.00;;;11.10;99.90;;;;;;5015459;28;20403;-72
2021/11/08 08:17:41;;;;;;;21.00;13.67;;;11.10;99.90;;;;;;5014671;28;20417;-72
2021/11/08 08:20:11;;;;;;;26.27;13.77;;;11.10;99.90;;;;;;5015677;28;20871;-72
2021/11/08 08:22:37;;;;;;;15.97;12.43;;;11.10;99.90;;;;;;5014963;28;20794;-72
2021/11/08 08:25:04;;;;;;;18.30;13.17;;;11.20;99.90;;;;;;5015412;28;20422;-72
2021/11/08 08:27:29;;;;;;;20.87;13.73;;;11.30;99.90;;;;;;5014495;28;20675;-72
2021/11/08 08:29:55;;;;;;;23.03;12.77;;;11.50;99.90;;;;;;5015415;28;20493;-72
2021/11/08 08:32:21;;;;;;;20.27;13.50;;;11.60;99.90;;;;;;5015111;28;20183;-72
2021/11/08 08:34:47;;;;;;;35.60;12.67;;;11.60;99.90;;;;;;5014160;28;20176;-72
2021/11/08 08:37:13;;;;;;;20.20;11.87;;;11.70;99.90;;;;;;5015056;28;20432;-72
2021/11/08 08:39:39;;;;;;;20.57;11.80;;;11.80;99.90;;;;;;5014772;28;20498;-72
2021/11/08 08:42:05;;;;;;;18.50;12.50;;;12.00;99.90;;;;;;5015101;28;20661;-73
2021/11/08 08:44:32;;;;;;;23.97;12.70;;;12.10;99.90;;;;;;5014302;28;20179;-73
2021/11/08 08:46:58;;;;;;;17.27;12.63;;;12.40;99.90;;;;;;5015006;28;20468;-72
2021/11/08 08:49:24;;;;;;;19.67;11.77;;;12.70;99.90;;;;;;5014788;28;20412;-74
2021/11/08 08:51:52;;;;;;;19.97;13.00;;;12.90;99.90;;;;;;5014999;28;20405;-72
2021/11/08 08:54:18;;;;;;;20.80;12.07;;;13.10;99.90;;;;;;5015031;28;20428;-73
2021/11/08 08:56:46;;;;;;;20.03;12.60;;;13.30;99.90;;;;;;4996941;28;21085;-72
2021/11/08 08:59:13;;;;;;;19.67;11.30;;;13.40;99.90;;;;;;5014887;28;20889;-72
2021/11/08 09:01:38;;;;;;;14.90;11.37;;;13.50;99.90;;;;;;5014223;28;20410;-72
2021/11/08 09:04:05;;;;;;;20.10;10.97;;;13.50;99.80;;;;;;5014817;28;21024;-72
2021/11/08 09:06:30;;;;;;;20.00;12.03;;;13.50;99.80;;;;;;5014165;28;20214;-73
2021/11/08 09:08:57;;;;;;;16.00;12.13;;;13.50;99.90;;;;;;5014701;28;20897;-72
2021/11/08 09:11:24;;;;;;;24.97;11.73;;;13.50;99.90;;;;;;5014615;28;20703;-72
2021/11/08 09:13:51;;;;;;;21.83;12.10;;;13.40;99.90;;;;;;5014557;28;20782;-72
2021/11/08 09:16:17;;;;;;;17.77;11.67;;;13.40;99.90;;;;;;5014210;28;20436;-72
2021/11/08 09:18:48;;;;;;;17.43;12.10;;;13.40;99.90;;;;;;5013363;28;20420;-72
2021/11/08 09:21:15;;;;;;;19.10;12.40;;;13.30;99.90;;;;;;5014116;28;20437;-72
2021/11/08 09:23:42;;;;;;;20.43;11.03;;;13.30;99.90;;;;;;5013755;28;20482;-72
2021/11/08 09:26:09;;;;;;;18.77;12.17;;;13.30;99.90;;;;;;5014349;28;20463;-72
2021/11/08 09:28:36;;;;;;;92.30;27.30;;;13.20;99.90;;;;;;5013668;28;20449;-72
2021/11/08 09:31:03;;;;;;;24.23;12.13;;;13.30;99.90;;;;;;5014273;28;20421;-72
2021/11/08 09:33:29;;;;;;;18.60;10.97;;;13.50;99.90;;;;;;5013313;28;20499;-73
2021/11/08 09:36:02;;;;;;;16.47;10.57;;;13.90;99.90;;;;;;5014334;28;20840;-72
2021/11/08 09:38:27;;;;;;;20.20;11.67;;;14.20;99.90;;;;;;5013664;28;20255;-73
2021/11/08 09:40:54;;;;;;;20.70;12.40;;;14.50;99.20;;;;;;4996653;28;20510;-72
2021/11/08 09:43:24;;;;;;;16.23;11.10;;;14.60;98.40;;;;;;5013633;28;20291;-72
2021/11/08 09:45:50;;;;;;;21.00;11.47;;;14.70;98.20;;;;;;5013113;28;20542;-72
2021/11/08 09:48:18;;;;;;;16.60;10.67;;;14.90;98.10;;;;;;5014124;28;20428;-72
2021/11/08 09:50:46;;;;;;;16.97;11.20;;;15.00;98.20;;;;;;5013331;28;20539;-72
2021/11/08 09:53:15;;;;;;;14.97;9.63;;;15.20;97.90;;;;;;5013868;28;20423;-72
2021/11/08 09:55:43;;;;;;;17.43;10.13;;;15.50;97.80;;;;;;5013271;28;20897;-72
2021/11/08 09:58:09;;;;;;;13.33;9.33;;;15.90;97.10;;;;;;5013772;28;20792;-72
2021/11/08 10:00:35;;;;;;;14.37;9.53;;;16.30;95.30;;;;;;5012898;28;20497;-72
2021/11/08 10:03:06;;;;;;;17.97;11.37;;;16.40;95.00;;;;;;4996231;28;20918;-72
2021/11/08 10:05:35;;;;;;;13.00;9.17;;;16.60;95.30;;;;;;5013031;28;20199;-73
2021/11/08 10:08:01;;;;;;;14.77;9.50;;;17.00;94.60;;;;;;5013576;28;20417;-72
2021/11/08 10:10:29;;;;;;;15.37;10.03;;;17.20;92.70;;;;;;5013155;28;20402;-72
2021/11/08 10:13:15;;;;;;;15.40;10.23;;;17.50;92.70;;;;;;5013212;28;20933;-72
2021/11/08 10:15:43;;;;;;;13.47;8.97;;;17.80;92.10;;;;;;5012744;28;20402;-72
2021/11/08 10:18:10;;;;;;;15.90;8.87;;;18.00;91.60;;;;;;5013449;28;20940;-72
2021/11/08 10:20:39;;;;;;;19.37;8.33;;;18.20;90.60;;;;;;5012920;28;20425;-72
2021/11/08 10:23:05;;;;;;;12.83;7.90;;;18.40;90.40;;;;;;5013444;28;20840;-73
2021/11/08 10:25:34;;;;;;;12.70;8.93;;;18.50;89.70;;;;;;5012685;28;20418;-73
2021/11/08 10:28:11;;;;;;;13.70;6.80;;;18.30;88.50;;;;;;5013241;28;20942;-73
2021/11/08 10:30:38;;;;;;;13.10;7.53;;;18.10;89.70;;;;;;4995224;28;20402;-73
2021/11/08 10:33:12;;;;;;;12.30;7.50;;;17.90;90.80;;;;;;5012247;28;20410;-72
2021/11/08 10:35:41;;;;;;;14.80;9.53;;;17.80;91.10;;;;;;5012134;28;20868;-72
2021/11/08 10:38:09;;;;;;;11.70;7.47;;;17.80;91.90;;;;;;5013194;28;20840;-72
2021/11/08 10:41:00;;;;;;;15.00;9.83;;;17.80;91.50;;;;;;5012490;28;20414;-73
2021/11/08 10:43:35;;;;;;;9.17;6.90;;;17.70;90.70;;;;;;5013167;28;20855;-72
2021/11/08 10:46:13;;;;;;;10.30;6.97;;;17.70;90.90;;;;;;5012758;28;20860;-72
2021/11/08 10:48:42;;;;;;;10.63;7.60;;;17.50;90.70;;;;;;5012443;28;20430;-73
2021/11/08 10:51:10;;;;;;;15.10;7.50;;;17.30;90.90;;;;;;5012757;28;20410;-72
2021/11/08 10:53:49;;;;;;;13.27;7.13;;;17.00;91.90;;;;;;5012329;28;20506;-73
2021/11/08 10:56:26;;;;;;;15.20;7.50;;;16.70;92.70;;;;;;5013076;28;20421;-72
2021/11/08 10:58:54;;;;;;;9.40;6.60;;;16.40;93.20;;;;;;5012095;28;20901;-72
2021/11/08 11:01:28;;;;;;;12.93;8.80;;;16.20;94.00;;;;;;4995358;28;20500;-73
2021/11/08 11:03:56;;;;;;;14.20;6.50;;;16.00;94.10;;;;;;5012336;28;20406;-72
2021/11/08 11:06:44;;;;;;;15.17;7.20;;;15.90;93.70;;;;;;5013043;28;20796;-72
2021/11/08 11:09:22;;;;;;;13.57;7.70;;;15.90;94.70;;;;;;5012906;28;20405;-72
2021/11/08 11:12:02;;;;;;;10.07;6.80;;;16.10;94.20;;;;;;4994620;28;20456;-72
2021/11/08 11:14:55;;;;;;;14.80;6.53;;;16.30;94.80;;;;;;5012549;28;20802;-72
2021/11/08 11:17:26;;;;;;;13.43;6.47;;;16.80;92.90;;;;;;5008461;28;20434;-72
2021/11/08 11:20:14;;;;;;;7.00;5.30;;;17.10;91.80;;;;;;5012107;28;20437;-72
2021/11/08 11:22:50;;;;;;;12.63;5.70;;;17.20;91.70;;;;;;5012377;28;20465;-73
2021/11/08 11:25:21;;;;;;;11.30;6.20;;;17.50;90.90;;;;;;5012725;28;20798;-72
2021/11/08 11:27:50;;;;;;;12.03;6.07;;;17.60;90.20;;;;;;5012072;28;20900;-72
2021/11/08 11:30:21;;;;;;;8.30;4.80;;;17.90;87.90;;;;;;4995167;28;20464;-72
2021/11/08 11:33:05;;;;;;;7.70;5.10;;;18.10;87.70;;;;;;5011690;28;20742;-72
2021/11/08 11:35:48;;;;;;;9.03;4.97;;;18.10;83.50;;;;;;5012607;28;20431;-72
2021/11/08 11:38:23;;;;;;;8.83;5.87;;;18.10;83.20;;;;;;5012675;28;20870;-72
2021/11/08 11:41:19;;;;;;;9.77;4.40;;;18.20;83.70;;;;;;5011898;28;20850;-72
2021/11/08 11:43:51;;;;;;;9.70;5.23;;;18.10;83.00;;;;;;5012424;28;20539;-72
2021/11/08 11:46:23;;;;;;;6.93;4.80;;;18.00;83.90;;;;;;5016157;28;20449;-73
2021/11/08 11:48:53;;;;;;;11.40;5.40;;;17.90;85.20;;;;;;4997967;28;20402;-72
2021/11/08 11:51:25;;;;;;;8.83;5.60;;;18.00;86.50;;;;;;5015802;28;20961;-72
2021/11/08 11:53:51;;;;;;;7.53;5.77;;;18.00;86.10;;;;;;5015522;28;20406;-72
2021/11/08 11:56:20;;;;;;;8.30;5.47;;;18.20;86.00;;;;;;5016008;28;20417;-72
2021/11/08 11:58:47;;;;;;;6.77;5.50;;;18.20;86.70;;;;;;5015401;28;20409;-72
2021/11/08 12:01:15;;;;;;;7.63;5.33;;;18.10;85.70;;;;;;5015868;28;20414;-73
2021/11/08 12:03:41;;;;;;;6.47;5.00;;;18.00;86.00;;;;;;5015309;28;20417;-73
2021/11/08 12:06:12;;;;;;;8.87;5.50;;;17.80;85.80;;;;;;5015821;28;20461;-72
2021/11/08 12:08:39;;;;;;;8.83;5.20;;;17.70;87.10;;;;;;5015188;28;20919;-73
2021/11/08 12:11:10;;;;;;;9.83;5.80;;;17.50;87.20;;;;;;5015585;28;20957;-72
2021/11/08 12:13:40;;;;;;;7.20;5.37;;;17.40;86.90;;;;;;5015299;28;20452;-72
2021/11/08 12:16:26;;;;;;;5.87;5.13;;;17.20;88.40;;;;;;5015857;28;20455;-73
2021/11/08 12:18:52;;;;;;;8.50;5.30;;;17.00;87.80;;;;;;5015047;28;20443;-72
2021/11/08 12:21:24;;;;;;;10.13;5.13;;;16.80;89.60;;;;;;5015544;28;20417;-72
2021/11/08 12:23:51;;;;;;;7.50;4.97;;;16.60;89.70;;;;;;5014919;28;20439;-72
2021/11/08 12:26:28;;;;;;;12.97;6.00;;;16.50;90.30;;;;;;5015364;28;20552;-72
2021/11/08 12:29:21;;;;;;;9.50;4.73;;;16.30;90.10;;;;;;5014811;28;20449;-73
2021/11/08 12:31:59;;;;;;;6.17;4.50;;;16.10;90.30;;;;;;5014865;28;20409;-73
2021/11/08 12:34:25;;;;;;;8.10;4.63;;;16.00;90.60;;;;;;5015210;28;20452;-72
2021/11/08 12:37:02;;;;;;;9.23;5.60;;;15.90;91.10;;;;;;5014536;28;20910;-73
2021/11/08 12:39:28;;;;;;;10.93;6.70;;;15.80;91.30;;;;;;5015319;28;20239;-72
2021/11/08 12:42:01;;;;;;;8.60;5.50;;;15.60;91.40;;;;;;5014246;28;20486;-72
2021/11/08 12:45:06;;;;;;;10.40;5.23;;;15.60;91.70;;;;;;4997800;28;20414;-72
2021/11/08 12:47:32;;;;;;;10.90;6.60;;;15.50;92.30;;;;;;5008756;28;20671;-72
2021/11/08 12:49:57;;;;;;;11.23;7.63;;;15.40;92.50;;;;;;5014563;28;20903;-72
2021/11/08 12:52:27;;;;;;;9.63;6.50;;;15.30;92.40;;;;;;5014995;28;20173;-72
2021/11/08 12:55:01;;;;;;;10.87;9.00;;;15.20;92.90;;;;;;5013795;28;20185;-72
2021/11/08 12:57:28;;;;;;;8.77;6.20;;;15.10;93.20;;;;;;5015146;28;20415;-72
2021/11/08 12:59:57;;;;;;;11.80;6.50;;;15.00;93.10;;;;;;5014338;28;20573;-72
2021/11/08 13:02:43;;;;;;;11.07;6.17;;;14.90;93.30;;;;;;5014885;28;20493;-72
2021/11/08 13:05:12;;;;;;;10.60;6.77;;;14.80;93.40;;;;;;5015345;28;20870;-72
2021/11/08 13:07:42;;;;;;;8.30;5.60;;;14.80;93.60;;;;;;5014537;28;20863;-72
2021/11/08 13:10:22;;;;;;;7.73;6.73;;;14.70;94.00;;;;;;5014696;28;20420;-72
2021/11/08 13:12:48;;;;;;;13.63;7.50;;;14.70;94.60;;;;;;5013801;28;20409;-72
2021/11/08 13:15:19;;;;;;;9.40;6.30;;;14.60;94.40;;;;;;5014835;28;20418;-72
2021/11/08 13:18:03;;;;;;;11.20;5.93;;;14.50;94.50;;;;;;5013885;28;20465;-73
2021/11/08 13:20:42;;;;;;;9.50;5.70;;;14.40;94.60;;;;;;5014355;28;20421;-72
2021/11/08 13:23:22;;;;;;;13.00;5.90;;;14.40;95.00;;;;;;5014506;28;20409;-72
2021/11/08 13:25:55;;;;;;;8.80;6.30;;;14.40;95.10;;;;;;5013417;28;20934;-72
2021/11/08 13:28:23;;;;;;;12.47;8.10;;;14.40;95.20;;;;;;5014516;28;20400;-72
2021/11/08 13:30:53;;;;;;;9.43;6.00;;;14.40;94.90;;;;;;5013578;28;20560;-72
2021/11/08 13:33:28;;;;;;;9.77;5.70;;;14.40;94.50;;;;;;5014111;28;20418;-72
2021/11/08 13:35:56;;;;;;;8.20;5.60;;;14.40;94.50;;;;;;5013418;28;20409;-72
2021/11/08 13:38:24;;;;;;;9.27;5.57;;;14.40;94.70;;;;;;5014121;28;20423;-72
2021/11/08 13:41:02;;;;;;;8.10;5.93;;;14.40;94.90;;;;;;5013408;28;20466;-72
2021/11/08 13:44:01;;;;;;;10.13;8.13;;;14.50;95.10;;;;;;5013640;28;20463;-72
2021/11/08 13:46:30;;;;;;;14.70;6.60;;;14.60;95.10;;;;;;5009887;28;20485;-72
2021/11/08 13:49:04;;;;;;;11.00;7.00;;;14.70;95.10;;;;;;5013269;28;20419;-72
2021/11/08 13:51:34;;;;;;;7.70;6.50;;;14.80;94.50;;;;;;5013953;28;20424;-72
2021/11/08 13:54:10;;;;;;;13.37;7.10;;;14.80;94.00;;;;;;5013596;28;20402;-71
2021/11/08 13:56:42;;;;;;;14.47;8.13;;;14.80;93.80;;;;;;5013943;28;20402;-72
2021/11/08 13:59:11;;;;;;;16.03;8.00;;;14.80;93.80;;;;;;5013704;28;20440;-72
2021/11/08 14:01:40;;;;;;;12.50;7.27;;;14.80;93.80;;;;;;5013743;28;20891;-72
2021/11/08 14:04:07;;;;;;;9.93;7.70;;;14.80;93.60;;;;;;5013010;28;20477;-72
2021/11/08 14:06:34;;;;;;;10.37;7.13;;;14.80;93.90;;;;;;5013261;28;20465;-72
2021/11/08 14:09:07;;;;;;;13.70;8.13;;;14.70;93.90;;;;;;5013021;28;20471;-72
2021/11/08 14:11:39;;;;;;;14.53;8.10;;;14.70;93.90;;;;;;5014141;28;20826;-72
2021/11/08 14:14:10;;;;;;;12.97;7.70;;;14.60;94.10;;;;;;5013116;28;20419;-72
2021/11/08 14:16:38;;;;;;;13.00;6.53;;;14.60;94.30;;;;;;5013394;28;20413;-72
2021/11/08 14:19:05;;;;;;;14.53;7.50;;;14.60;94.10;;;;;;5012838;28;20806;-72
2021/11/08 14:21:32;;;;;;;11.60;7.93;;;14.60;94.60;;;;;;5013073;28;20454;-72
2021/11/08 14:24:08;;;;;;;12.43;6.60;;;14.60;94.50;;;;;;5012833;28;20427;-72
2021/11/08 14:26:36;;;;;;;12.70;9.00;;;14.60;94.70;;;;;;5013294;28;20458;-72
2021/11/08 14:29:13;;;;;;;6.90;5.70;;;14.50;94.60;;;;;;5012677;28;20498;-72
2021/11/08 14:31:40;;;;;;;11.77;5.87;;;14.50;94.80;;;;;;5013254;28;20447;-72